Terminal Aerodrome Forecast
Issued by NWS

Home | Current Version | Previous Version | Text Only | Print | Product List | Glossary On
Versions: 1 2 3 4 5 6 7 8 9 10 11 12 13 14 15 16
000
FTUS41 KGYX 282332
TAFRKD
TAF
KRKD 282332Z 2900/2924 VRB03KT 1/4SM FG OVC001
      TEMPO 2901/2905 3SM BR BKN009
     FM290500 26005KT 5SM BR BKN012
     FM291700 24008G16KT P6SM BKN050=

USA.gov is the U.S. government's official web portal to all federal, state and local government web resources and services.